createdAt,value
2019-04-01T00:00:08.722Z,2.00
2019-04-01T00:02:36.247Z,1.63
2019-04-01T00:05:03.869Z,2.80
2019-04-01T00:07:31.269Z,1.83
2019-04-01T00:09:58.716Z,1.90
2019-04-01T00:12:26.208Z,2.40
2019-04-01T00:14:53.632Z,1.47
2019-04-01T00:17:21.012Z,1.47
2019-04-01T00:19:48.417Z,1.53
2019-04-01T00:22:15.808Z,1.43
2019-04-01T00:24:43.249Z,1.43
2019-04-01T00:27:10.647Z,1.60
2019-04-01T00:29:38.107Z,1.43
2019-04-01T00:32:05.482Z,1.80
2019-04-01T00:34:32.954Z,1.20
2019-04-01T00:37:00.426Z,1.17
2019-04-01T00:39:27.922Z,1.40
2019-04-01T00:42:17.627Z,2.30
2019-04-01T00:44:45.109Z,1.20
2019-04-01T00:47:12.598Z,1.90
2019-04-01T00:49:40.030Z,1.20
2019-04-01T00:52:07.447Z,1.30
2019-04-01T00:54:34.887Z,1.60
2019-04-01T00:57:02.427Z,1.90
2019-04-01T00:59:29.906Z,1.60
2019-04-01T01:01:57.327Z,1.80
2019-04-01T01:04:24.757Z,1.40
2019-04-01T01:06:52.152Z,1.50
2019-04-01T01:09:19.537Z,1.67
2019-04-01T01:11:46.972Z,1.57
2019-04-01T01:14:14.358Z,1.60
2019-04-01T01:16:41.911Z,1.60
2019-04-01T01:19:09.342Z,2.03
2019-04-01T01:21:36.967Z,1.80
2019-04-01T01:24:04.360Z,1.63
2019-04-01T01:26:31.822Z,1.73
2019-04-01T01:28:59.207Z,1.53
2019-04-01T01:31:26.657Z,1.60
2019-04-01T01:33:54.097Z,1.70
2019-04-01T01:36:21.573Z,1.40
2019-04-01T01:38:48.982Z,1.37
2019-04-01T01:41:16.822Z,1.63
2019-04-01T01:43:45.052Z,1.27
2019-04-01T01:46:12.762Z,1.90
2019-04-01T01:48:40.397Z,1.70
2019-04-01T01:51:07.882Z,1.73
2019-04-01T01:53:35.357Z,2.10
2019-04-01T01:56:02.851Z,1.57
2019-04-01T01:58:30.252Z,1.50
2019-04-01T02:00:58.036Z,1.60
2019-04-01T02:03:25.427Z,1.77
2019-04-01T02:05:52.887Z,1.53
2019-04-01T02:08:20.327Z,1.63
2019-04-01T02:10:47.763Z,1.80
2019-04-01T02:13:15.142Z,2.10
2019-04-01T02:15:42.582Z,1.87
2019-04-01T02:18:10.142Z,2.00
2019-04-01T02:20:37.584Z,1.50
2019-04-01T02:23:04.972Z,2.00
2019-04-01T02:25:32.392Z,1.70
2019-04-01T02:27:59.787Z,1.50
2019-04-01T02:30:27.689Z,1.87
2019-04-01T02:32:55.075Z,2.10
2019-04-01T02:35:22.587Z,2.03
2019-04-01T02:37:49.984Z,1.53
2019-04-01T02:40:21.698Z,1.73
2019-04-01T02:42:46.829Z,1.40
2019-04-01T02:45:15.718Z,1.93
2019-04-01T02:47:43.165Z,2.40
2019-04-01T02:50:13.653Z,1.60
2019-04-01T02:52:41.099Z,1.90
2019-04-01T02:55:08.590Z,1.50
2019-04-01T02:57:36.042Z,2.03
2019-04-01T03:00:04.175Z,1.83
2019-04-01T03:02:31.633Z,2.00
2019-04-01T03:04:59.009Z,1.47
2019-04-01T03:07:26.451Z,1.53
2019-04-01T03:09:53.831Z,2.20
2019-04-01T03:12:21.267Z,2.13
2019-04-01T03:14:48.645Z,2.07
2019-04-01T03:17:16.109Z,2.30
2019-04-01T03:19:43.519Z,1.90
2019-04-01T03:22:11.027Z,1.90
2019-04-01T03:24:38.433Z,2.50
2019-04-01T03:27:05.869Z,2.00
2019-04-01T03:29:33.297Z,1.90
2019-04-01T03:32:00.921Z,1.80
2019-04-01T03:34:28.647Z,2.00
2019-04-01T03:36:56.177Z,1.40
2019-04-01T03:39:23.562Z,2.23
2019-04-01T03:41:50.995Z,2.50
2019-04-01T03:44:18.417Z,1.47
2019-04-01T03:46:45.806Z,2.20
2019-04-01T03:49:13.241Z,1.83
2019-04-01T03:51:40.755Z,1.77
2019-04-01T03:54:08.143Z,1.80
2019-04-01T03:56:35.608Z,2.00
2019-04-01T03:59:03.174Z,1.67
2019-04-01T04:01:30.881Z,1.93
2019-04-01T04:03:58.524Z,1.93
2019-04-01T04:06:26.084Z,2.27
2019-04-01T04:08:53.489Z,2.80
2019-04-01T04:11:20.910Z,2.30
2019-04-01T04:13:48.306Z,2.43
2019-04-01T04:16:15.762Z,2.50
2019-04-01T04:18:43.184Z,2.17
2019-04-01T04:21:10.588Z,1.93
2019-04-01T04:23:38.022Z,2.00
2019-04-01T04:26:05.831Z,2.00
2019-04-01T04:28:33.256Z,2.50
2019-04-01T04:31:00.949Z,2.50
2019-04-01T04:33:28.417Z,2.80
2019-04-01T04:35:55.826Z,2.97
2019-04-01T04:38:23.252Z,2.70
2019-04-01T04:40:50.767Z,2.53
2019-04-01T04:43:18.197Z,2.50
2019-04-01T04:45:45.628Z,2.77
2019-04-01T04:48:13.092Z,3.63
2019-04-01T04:50:42.602Z,3.90
2019-04-01T04:53:10.052Z,2.60
2019-04-01T04:55:37.472Z,2.83
2019-04-01T04:58:04.967Z,2.30
2019-04-01T05:00:32.467Z,2.17
2019-04-01T05:02:59.884Z,3.00
2019-04-01T05:05:27.288Z,3.60
2019-04-01T05:07:54.732Z,2.30
2019-04-01T05:10:22.187Z,3.07
2019-04-01T05:12:49.677Z,2.70
2019-04-01T05:15:17.076Z,2.77
2019-04-01T05:17:44.512Z,2.60
2019-04-01T05:20:11.930Z,3.10
2019-04-01T05:22:39.667Z,2.90
2019-04-01T05:25:07.203Z,2.33
2019-04-01T05:27:35.172Z,3.10
2019-04-01T05:30:04.432Z,3.30
2019-04-01T05:32:35.172Z,2.40
2019-04-01T05:35:03.809Z,2.33
2019-04-01T05:37:31.342Z,2.10
2019-04-01T05:39:58.887Z,2.53
2019-04-01T05:42:26.417Z,2.47
2019-04-01T05:44:53.832Z,2.93
2019-04-01T05:47:27.417Z,2.50
2019-04-01T05:49:54.918Z,2.00
2019-04-01T05:52:22.376Z,2.37
2019-04-01T05:54:49.773Z,2.17
2019-04-01T05:57:17.192Z,2.47
2019-04-01T05:59:45.962Z,2.30
2019-04-01T06:02:13.462Z,2.43
2019-04-01T06:04:40.899Z,2.43
2019-04-01T06:07:08.324Z,2.47
2019-04-01T06:09:35.831Z,2.33
2019-04-01T06:12:03.202Z,2.23
2019-04-01T06:14:30.666Z,2.50
2019-04-01T06:16:58.137Z,2.40
2019-04-01T06:19:25.687Z,2.57
2019-04-01T06:21:53.186Z,2.97
2019-04-01T06:24:24.485Z,3.03
2019-04-01T06:26:50.448Z,2.57
2019-04-01T06:29:17.880Z,2.37
2019-04-01T06:31:45.450Z,2.27
2019-04-01T06:34:12.876Z,2.20
2019-04-01T06:36:40.277Z,3.10
2019-04-01T06:39:07.727Z,3.10
2019-04-01T06:41:35.242Z,2.50
2019-04-01T06:44:02.835Z,2.60
2019-04-01T06:46:30.373Z,2.13
2019-04-01T06:48:57.839Z,2.60
2019-04-01T06:51:25.251Z,2.40
2019-04-01T06:53:52.814Z,2.07
2019-04-01T06:56:20.307Z,1.90
2019-04-01T06:58:47.907Z,2.33
2019-04-01T07:01:15.402Z,2.50
2019-04-01T07:03:42.853Z,1.90
2019-04-01T07:06:10.261Z,2.17
2019-04-01T07:08:37.706Z,2.50
2019-04-01T07:11:05.532Z,2.27
2019-04-01T07:13:33.032Z,2.43
2019-04-01T07:16:14.361Z,2.20
2019-04-01T07:18:29.874Z,2.07
2019-04-01T07:20:57.372Z,2.33
2019-04-01T07:23:25.172Z,2.17
2019-04-01T07:25:52.583Z,2.27
2019-04-01T07:28:20.096Z,2.00
2019-04-01T07:30:47.541Z,2.33
2019-04-01T07:33:15.051Z,2.00
2019-04-01T07:35:42.577Z,2.40
2019-04-01T07:38:09.996Z,2.00
2019-04-01T07:40:37.434Z,1.97
2019-04-01T07:43:04.977Z,1.93
2019-04-01T07:45:32.417Z,2.20
2019-04-01T07:48:00.510Z,2.13
2019-04-01T07:50:27.967Z,2.77
2019-04-01T07:52:55.655Z,2.20
2019-04-01T07:55:23.570Z,2.17
2019-04-01T07:57:51.132Z,2.43
2019-04-01T08:00:18.826Z,1.77
2019-04-01T08:02:48.832Z,2.60
2019-04-01T08:05:15.610Z,2.83
2019-04-01T08:07:43.137Z,2.40
2019-04-01T08:10:10.984Z,2.43
2019-04-01T08:12:38.483Z,2.97
2019-04-01T08:15:06.107Z,2.47
2019-04-01T08:17:33.617Z,2.50
2019-04-01T08:20:01.485Z,2.53
2019-04-01T08:22:29.365Z,2.70
2019-04-01T08:24:56.813Z,2.60
2019-04-01T08:27:24.370Z,2.87
2019-04-01T08:29:51.821Z,2.50
2019-04-01T08:32:19.367Z,2.90
2019-04-01T08:34:46.822Z,2.33
2019-04-01T08:37:14.332Z,2.50
2019-04-01T08:39:41.986Z,2.83
2019-04-01T08:42:09.482Z,2.23
2019-04-01T08:44:37.083Z,2.50
2019-04-01T08:47:04.636Z,2.43
2019-04-01T08:49:32.210Z,2.50
2019-04-01T08:51:59.667Z,2.33
2019-04-01T08:54:27.327Z,2.83
2019-04-01T08:56:54.957Z,2.37
2019-04-01T08:59:22.825Z,2.40
2019-04-01T09:01:50.479Z,2.53
2019-04-01T09:04:18.088Z,2.23
2019-04-01T09:06:45.627Z,2.33
2019-04-01T09:09:13.133Z,1.97
2019-04-01T09:11:41.026Z,1.93
2019-04-01T09:14:08.462Z,2.47
2019-04-01T09:16:36.965Z,2.23
2019-04-01T09:19:04.756Z,2.57
2019-04-01T09:21:34.091Z,2.20
2019-04-01T09:24:01.702Z,2.40
2019-04-01T09:26:29.238Z,1.77
2019-04-01T09:28:56.692Z,2.30
2019-04-01T09:31:24.237Z,1.80
2019-04-01T09:33:51.712Z,2.10
2019-04-01T09:36:19.392Z,2.17
2019-04-01T09:38:46.948Z,2.30
2019-04-01T09:41:14.472Z,1.70
2019-04-01T09:43:41.995Z,1.80
2019-04-01T09:46:09.593Z,2.27
2019-04-01T09:48:37.277Z,1.70
2019-04-01T09:51:05.223Z,1.97
2019-04-01T09:53:32.748Z,2.17
2019-04-01T09:56:00.452Z,1.97
2019-04-01T09:58:28.172Z,2.13
2019-04-01T10:01:06.912Z,2.03
2019-04-01T10:03:34.337Z,2.03
2019-04-01T10:06:02.843Z,1.87
2019-04-01T10:08:42.187Z,1.93
2019-04-01T10:11:02.637Z,2.23
2019-04-01T10:13:31.177Z,2.07
2019-04-01T10:15:58.748Z,1.70
2019-04-01T10:18:27.199Z,1.80
2019-04-01T10:20:54.692Z,2.13
2019-04-01T10:23:23.357Z,2.23
2019-04-01T10:25:51.702Z,1.70
2019-04-01T10:28:20.320Z,1.83
2019-04-01T10:30:49.308Z,1.87
2019-04-01T10:33:16.845Z,1.77
2019-04-01T10:35:44.292Z,1.70
2019-04-01T10:38:11.793Z,1.73
2019-04-01T10:40:39.332Z,1.73
2019-04-01T10:43:07.005Z,2.07
2019-04-01T10:45:34.528Z,1.70
2019-04-01T10:48:04.179Z,2.20
2019-04-01T10:50:31.724Z,1.87
2019-04-01T10:52:59.496Z,1.70
2019-04-01T10:55:27.542Z,1.83
2019-04-01T10:57:56.343Z,1.57
2019-04-01T11:00:23.987Z,2.07
2019-04-01T11:02:52.536Z,1.90
2019-04-01T11:05:20.126Z,1.80
2019-04-01T11:07:47.769Z,2.20
2019-04-01T11:10:15.450Z,1.97
2019-04-01T11:12:42.999Z,1.90
2019-04-01T11:15:10.747Z,1.83
2019-04-01T11:17:38.442Z,2.10
2019-04-01T11:20:08.069Z,2.03
2019-04-01T11:22:36.436Z,2.27
2019-04-01T11:25:06.236Z,2.33
2019-04-01T11:27:33.890Z,1.97
2019-04-01T11:30:01.395Z,1.90
2019-04-01T11:32:29.054Z,2.20
2019-04-01T11:34:56.574Z,2.20
2019-04-01T11:37:24.358Z,2.30
2019-04-01T11:39:51.971Z,2.00
2019-04-01T11:42:19.709Z,2.10
2019-04-01T11:44:47.759Z,1.80
2019-04-01T11:47:15.529Z,2.23
2019-04-01T11:49:43.290Z,2.27
2019-04-01T11:52:11.211Z,3.03
2019-04-01T11:54:38.837Z,2.30
2019-04-01T11:57:06.387Z,2.20
2019-04-01T11:59:34.833Z,2.17
2019-04-01T12:02:03.571Z,2.90
2019-04-01T12:04:31.270Z,2.37
2019-04-01T12:07:02.188Z,2.07
2019-04-01T12:09:30.169Z,2.70
2019-04-01T12:11:57.831Z,2.23
2019-04-01T12:14:26.816Z,2.43
2019-04-01T12:16:54.509Z,2.80
2019-04-01T12:19:22.330Z,2.37
2019-04-01T12:21:50.151Z,2.33
2019-04-01T12:24:17.769Z,2.50
2019-04-01T12:26:45.303Z,2.90
2019-04-01T12:29:14.949Z,2.73
2019-04-01T12:31:42.712Z,3.20
2019-04-01T12:34:10.450Z,2.53
2019-04-01T12:36:39.412Z,2.60
2019-04-01T12:39:07.449Z,2.93
2019-04-01T12:41:35.570Z,2.70
2019-04-01T12:44:04.131Z,3.10
2019-04-01T12:46:32.049Z,2.67
2019-04-01T12:49:02.709Z,2.80
2019-04-01T12:51:32.889Z,2.37
2019-04-01T12:54:01.190Z,3.13
2019-04-01T12:56:32.248Z,3.93
2019-04-01T12:59:01.537Z,2.60
2019-04-01T13:01:30.358Z,3.13
2019-04-01T13:03:58.070Z,2.90
2019-04-01T13:06:25.996Z,2.80
2019-04-01T13:08:53.986Z,3.30
2019-04-01T13:11:23.171Z,3.27
2019-04-01T13:13:50.931Z,3.03
2019-04-01T13:16:18.649Z,2.67
2019-04-01T13:18:47.293Z,2.50
2019-04-01T13:21:15.544Z,2.70
2019-04-01T13:23:43.310Z,2.77
2019-04-01T13:26:11.592Z,2.97
2019-04-01T13:28:42.266Z,2.70
2019-04-01T13:31:08.950Z,2.77
2019-04-01T13:33:36.689Z,2.83
2019-04-01T13:36:07.632Z,2.77
2019-04-01T13:38:34.149Z,3.00
2019-04-01T13:41:01.810Z,2.90
2019-04-01T13:43:29.573Z,2.77
2019-04-01T13:45:57.128Z,2.67
2019-04-01T13:48:24.769Z,2.53
2019-04-01T13:50:52.392Z,2.53
2019-04-01T13:53:20.072Z,2.87
2019-04-01T13:55:47.749Z,2.40
2019-04-01T13:58:17.591Z,2.70
2019-04-01T14:00:45.470Z,2.80
2019-04-01T14:03:14.295Z,2.80
2019-04-01T14:05:41.830Z,2.77
2019-04-01T14:08:09.558Z,2.90
2019-04-01T14:10:40.423Z,3.07
2019-04-01T14:13:06.789Z,2.53
2019-04-01T14:15:34.650Z,2.70
2019-04-01T14:18:02.829Z,3.07
2019-04-01T14:20:30.470Z,2.60
2019-04-01T14:22:58.132Z,2.50
2019-04-01T14:25:26.070Z,3.10
2019-04-01T14:27:53.749Z,2.50
2019-04-01T14:30:21.710Z,2.80
2019-04-01T14:32:49.273Z,2.73
2019-04-01T14:35:16.886Z,2.43
2019-04-01T14:37:44.559Z,2.47
2019-04-01T14:40:12.173Z,2.50
2019-04-01T14:42:40.159Z,3.63
2019-04-01T14:45:08.342Z,2.40
2019-04-01T14:47:35.968Z,2.20
2019-04-01T14:50:07.626Z,2.33
2019-04-01T14:52:34.522Z,2.10
2019-04-01T14:55:02.562Z,2.50
2019-04-01T14:57:30.536Z,2.13
2019-04-01T14:59:58.027Z,2.00
2019-04-01T15:02:25.567Z,1.90
